createdAt,value
2017-11-28T00:01:25.501Z,85.30
2017-11-28T00:03:53.623Z,85.70
2017-11-28T00:06:21.784Z,86.90
2017-11-28T00:08:49.919Z,87.60
2017-11-28T00:11:18.065Z,87.30
2017-11-28T00:13:46.967Z,85.70
2017-11-28T00:16:15.900Z,86.30
2017-11-28T00:18:44.033Z,85.30
2017-11-28T00:21:12.947Z,87.30
2017-11-28T00:23:41.065Z,87.30
2017-11-28T00:26:09.244Z,86.80
2017-11-28T00:28:37.378Z,86.10
2017-11-28T00:31:05.657Z,86.00
2017-11-28T00:33:33.780Z,86.30
2017-11-28T00:36:01.952Z,85.60
2017-11-28T00:38:30.098Z,84.10
2017-11-28T00:40:58.237Z,85.50
2017-11-28T00:43:26.385Z,84.60
2017-11-28T00:45:55.274Z,84.60
2017-11-28T00:48:24.191Z,84.60
2017-11-28T00:50:52.314Z,84.60
2017-11-28T00:53:20.455Z,85.20
2017-11-28T00:55:48.611Z,85.90
2017-11-28T00:58:16.800Z,86.10
2017-11-28T01:00:44.935Z,84.40
2017-11-28T01:03:13.848Z,85.60
2017-11-28T01:05:42.008Z,85.60
2017-11-28T01:08:10.935Z,86.40
2017-11-28T01:10:39.075Z,86.40
2017-11-28T01:13:07.223Z,85.80
2017-11-28T01:15:35.334Z,85.70
2017-11-28T01:18:03.499Z,85.80
2017-11-28T01:20:31.628Z,86.80
2017-11-28T01:23:00.587Z,85.00
2017-11-28T01:25:28.710Z,84.90
2017-11-28T01:27:56.851Z,84.80
2017-11-28T01:30:25.058Z,83.80
2017-11-28T01:32:53.216Z,83.40
2017-11-28T01:35:21.403Z,83.30
2017-11-28T01:37:49.556Z,83.70
2017-11-28T01:40:17.688Z,82.70
2017-11-28T01:42:45.838Z,82.60
2017-11-28T01:45:14.719Z,81.50
2017-11-28T01:47:42.919Z,81.40
2017-11-28T01:50:11.852Z,85.20
2017-11-28T01:52:40.018Z,84.40
2017-11-28T01:55:08.268Z,84.20
2017-11-28T01:57:36.387Z,83.30
2017-11-28T02:00:04.518Z,81.90
2017-11-28T02:02:39.120Z,81.70
2017-11-28T02:05:08.026Z,79.40
2017-11-28T02:07:36.196Z,79.30
2017-11-28T02:10:04.355Z,79.80
2017-11-28T02:12:33.252Z,80.80
2017-11-28T02:15:02.156Z,82.10
2017-11-28T02:17:30.275Z,82.10
2017-11-28T02:19:58.443Z,81.50
2017-11-28T02:22:26.580Z,81.40
2017-11-28T02:24:54.746Z,81.70
2017-11-28T02:27:22.873Z,81.50
2017-11-28T02:29:51.447Z,81.50
2017-11-28T02:32:19.657Z,81.00
2017-11-28T02:34:47.855Z,82.10
2017-11-28T02:37:16.089Z,82.10
2017-11-28T02:39:44.308Z,81.00
2017-11-28T02:42:12.521Z,81.20
2017-11-28T02:44:40.734Z,81.30
2017-11-28T02:47:09.304Z,80.20
2017-11-28T02:49:53.220Z,80.60
2017-11-28T02:52:21.442Z,80.90
2017-11-28T02:55:11.356Z,81.20
2017-11-28T02:57:40.289Z,80.90
2017-11-28T03:00:08.439Z,80.40
2017-11-28T03:02:43.423Z,80.80
2017-11-28T03:05:12.380Z,80.80
2017-11-28T03:07:41.409Z,80.70
2017-11-28T03:10:22.113Z,81.00
2017-11-28T03:12:52.028Z,81.00
2017-11-28T03:15:21.056Z,81.80
2017-11-28T03:17:50.040Z,81.50
2017-11-28T03:20:24.067Z,81.50
2017-11-28T03:23:05.678Z,80.50
2017-11-28T03:25:34.589Z,82.00
2017-11-28T03:28:16.056Z,82.00
2017-11-28T03:30:57.817Z,81.20
2017-11-28T03:33:26.032Z,81.20
2017-11-28T03:35:55.018Z,80.80
2017-11-28T03:38:24.010Z,81.10
2017-11-28T03:40:52.996Z,80.60
2017-11-28T03:43:21.130Z,80.50
2017-11-28T03:46:04.985Z,80.70
2017-11-28T03:48:34.987Z,80.60
2017-11-28T03:51:03.159Z,81.10
2017-11-28T03:53:31.416Z,80.30
2017-11-28T03:55:59.578Z,80.20
2017-11-28T03:58:27.801Z,79.80
2017-11-28T04:00:55.924Z,79.30
2017-11-28T04:03:24.158Z,78.90
2017-11-28T04:05:52.349Z,78.90
2017-11-28T04:08:21.390Z,79.30
2017-11-28T04:10:49.539Z,79.30
2017-11-28T04:13:18.543Z,78.50
2017-11-28T04:15:47.687Z,78.50
2017-11-28T04:18:15.864Z,78.50
2017-11-28T04:20:43.984Z,78.70
2017-11-28T04:23:12.223Z,79.00
2017-11-28T04:25:41.222Z,80.00
2017-11-28T04:28:09.456Z,79.90
2017-11-28T04:30:37.691Z,79.60
2017-11-28T04:33:05.942Z,80.30
2017-11-28T04:35:34.122Z,80.10
2017-11-28T04:38:02.376Z,80.20
2017-11-28T04:40:30.600Z,80.50
2017-11-28T04:42:58.720Z,79.60
2017-11-28T04:45:26.854Z,80.40
2017-11-28T04:47:55.050Z,80.40
2017-11-28T04:50:23.274Z,80.60
2017-11-28T04:52:51.428Z,80.70
2017-11-28T04:55:20.330Z,81.10
2017-11-28T04:57:48.479Z,81.30
2017-11-28T05:00:16.630Z,80.60
2017-11-28T05:02:44.803Z,80.60
2017-11-28T05:05:12.983Z,80.60
2017-11-28T05:07:41.199Z,81.10
2017-11-28T05:10:10.188Z,80.80
2017-11-28T05:12:39.207Z,80.20
2017-11-28T05:15:08.175Z,80.60
2017-11-28T05:17:36.316Z,80.60
2017-11-28T05:20:04.483Z,80.80
2017-11-28T05:22:32.713Z,81.20
2017-11-28T05:25:01.700Z,81.10
2017-11-28T05:27:30.642Z,80.20
2017-11-28T05:29:58.814Z,80.10
2017-11-28T05:32:27.022Z,80.70
2017-11-28T05:34:55.206Z,80.40
2017-11-28T05:37:23.322Z,80.80
2017-11-28T05:39:51.949Z,80.00
2017-11-28T05:42:20.120Z,79.50
2017-11-28T05:44:48.279Z,78.90
2017-11-28T05:47:17.759Z,78.90
2017-11-28T05:49:46.000Z,79.00
2017-11-28T05:52:14.940Z,78.60
2017-11-28T05:54:43.137Z,78.60
2017-11-28T05:57:11.317Z,78.40
2017-11-28T05:59:39.496Z,78.20
2017-11-28T06:02:07.693Z,78.40
2017-11-28T06:04:35.805Z,78.10
2017-11-28T06:07:03.947Z,78.50
2017-11-28T06:09:32.831Z,78.10
2017-11-28T06:12:01.040Z,78.10
2017-11-28T06:14:29.263Z,78.70
2017-11-28T06:16:57.449Z,79.30
2017-11-28T06:19:25.623Z,78.10
2017-11-28T06:21:53.827Z,78.00
2017-11-28T06:24:22.679Z,78.90
2017-11-28T06:26:50.872Z,78.90
2017-11-28T06:29:19.034Z,79.30
2017-11-28T06:31:47.162Z,78.00
2017-11-28T06:34:15.296Z,78.10
2017-11-28T06:36:44.251Z,78.30
2017-11-28T06:39:12.436Z,78.20
2017-11-28T06:41:40.556Z,78.40
2017-11-28T06:44:08.726Z,79.00
2017-11-28T06:46:42.651Z,78.80
2017-11-28T06:49:10.747Z,78.00
2017-11-28T06:51:40.287Z,77.80
2017-11-28T06:54:08.489Z,78.40
2017-11-28T06:56:37.372Z,77.80
2017-11-28T06:59:06.315Z,77.00
2017-11-28T07:01:34.435Z,77.00
2017-11-28T07:04:03.373Z,77.90
2017-11-28T07:06:31.520Z,78.00
2017-11-28T07:08:59.629Z,77.70
2017-11-28T07:11:27.772Z,77.90
2017-11-28T07:13:55.882Z,78.20
2017-11-28T07:16:24.027Z,78.00
2017-11-28T07:18:52.127Z,78.60
2017-11-28T07:21:20.263Z,78.70
2017-11-28T07:23:48.385Z,78.00
2017-11-28T07:26:16.508Z,77.70
2017-11-28T07:28:44.667Z,78.20
2017-11-28T07:31:12.837Z,78.20
2017-11-28T07:33:41.781Z,77.10
2017-11-28T07:36:09.902Z,77.00
2017-11-28T07:38:38.885Z,76.40
2017-11-28T07:41:06.991Z,76.30
2017-11-28T07:43:35.126Z,77.20
2017-11-28T07:46:03.234Z,77.10
2017-11-28T07:48:31.369Z,76.90
2017-11-28T07:50:59.472Z,77.00
2017-11-28T07:53:29.153Z,76.20
2017-11-28T07:55:57.292Z,76.10
2017-11-28T07:58:25.424Z,76.00
2017-11-28T08:00:54.335Z,77.50
2017-11-28T08:03:22.517Z,77.50
2017-11-28T08:05:50.628Z,76.40
2017-11-28T08:08:18.861Z,76.40
2017-11-28T08:10:46.975Z,75.30
2017-11-28T08:13:15.137Z,75.80
2017-11-28T08:15:43.236Z,74.90
2017-11-28T08:18:11.378Z,75.50
2017-11-28T08:20:39.497Z,75.70
2017-11-28T08:23:08.378Z,75.20
2017-11-28T08:25:36.476Z,75.10
2017-11-28T08:28:04.605Z,75.20
2017-11-28T08:30:32.702Z,75.60
2017-11-28T08:33:01.654Z,73.90
2017-11-28T08:35:29.785Z,73.80
2017-11-28T08:37:57.962Z,73.70
2017-11-28T08:40:26.087Z,74.10
2017-11-28T08:42:54.290Z,73.90
2017-11-28T08:45:23.177Z,72.80
2017-11-28T08:47:52.971Z,72.50
2017-11-28T08:50:21.068Z,72.50
2017-11-28T08:52:49.984Z,72.90
2017-11-28T08:55:18.128Z,72.80
2017-11-28T08:57:47.062Z,71.60
2017-11-28T09:00:15.167Z,71.60
2017-11-28T09:02:43.331Z,71.00
2017-11-28T09:05:11.454Z,71.30
2017-11-28T09:07:39.611Z,70.10
2017-11-28T09:10:08.862Z,67.70
2017-11-28T09:12:37.035Z,67.40
2017-11-28T09:15:05.157Z,67.70
2017-11-28T09:17:34.112Z,67.90
2017-11-28T09:20:02.229Z,67.70
2017-11-28T09:22:31.203Z,68.70
2017-11-28T09:24:59.373Z,68.70
2017-11-28T09:27:27.507Z,66.80
2017-11-28T09:29:55.600Z,67.70
2017-11-28T09:32:23.751Z,68.00
2017-11-28T09:34:51.849Z,68.60
2017-11-28T09:37:20.026Z,68.20
2017-11-28T09:39:48.154Z,68.70
2017-11-28T09:42:16.257Z,69.00
2017-11-28T09:44:44.397Z,68.00
2017-11-28T09:47:12.593Z,67.70
2017-11-28T09:49:41.195Z,68.40
2017-11-28T09:52:09.338Z,67.20
2017-11-28T09:54:37.521Z,67.40
2017-11-28T09:57:05.638Z,68.10
2017-11-28T09:59:33.759Z,67.80
2017-11-28T10:02:01.874Z,68.30
2017-11-28T10:04:30.009Z,67.30
2017-11-28T10:06:58.125Z,66.90
2017-11-28T10:09:26.230Z,66.00
2017-11-28T10:11:54.346Z,67.00
2017-11-28T10:14:22.503Z,68.10
2017-11-28T10:16:50.617Z,66.60
2017-11-28T10:19:18.810Z,65.60
2017-11-28T10:21:47.685Z,65.40
2017-11-28T10:24:15.799Z,66.90
2017-11-28T10:26:43.910Z,67.50
2017-11-28T10:29:12.046Z,63.60
2017-11-28T10:31:40.138Z,65.00
2017-11-28T10:34:08.323Z,64.70
2017-11-28T10:36:36.436Z,64.60
2017-11-28T10:39:05.350Z,64.40
2017-11-28T10:41:33.516Z,64.40
2017-11-28T10:44:01.631Z,64.70
2017-11-28T10:46:29.767Z,65.20
2017-11-28T10:48:57.891Z,64.80
2017-11-28T10:51:26.070Z,64.70
2017-11-28T10:53:54.191Z,66.30
2017-11-28T10:56:22.367Z,64.60
2017-11-28T10:58:50.540Z,64.70
2017-11-28T11:01:18.707Z,65.10
2017-11-28T11:03:46.831Z,64.90
2017-11-28T11:06:15.010Z,65.20
2017-11-28T11:08:43.139Z,66.50
2017-11-28T11:11:12.608Z,66.70
2017-11-28T11:13:42.795Z,64.90
2017-11-28T11:16:10.932Z,64.90
2017-11-28T11:18:39.055Z,65.40
2017-11-28T11:21:07.207Z,64.80
2017-11-28T11:23:35.760Z,65.80
2017-11-28T11:26:03.919Z,66.60
2017-11-28T11:28:32.808Z,67.50
2017-11-28T11:31:01.715Z,66.90
2017-11-28T11:33:29.834Z,66.90
2017-11-28T11:35:57.975Z,65.50
2017-11-28T11:38:26.094Z,66.60
2017-11-28T11:40:54.234Z,66.00
2017-11-28T11:43:22.354Z,66.20
2017-11-28T11:45:50.499Z,66.60
2017-11-28T11:48:18.626Z,67.50
2017-11-28T11:50:46.771Z,67.90
2017-11-28T11:53:15.695Z,68.60
2017-11-28T11:55:43.844Z,68.60
2017-11-28T11:58:12.734Z,69.30
2017-11-28T12:00:41.624Z,68.60
2017-11-28T12:03:10.531Z,67.90
2017-11-28T12:05:39.424Z,67.90
2017-11-28T12:08:07.586Z,67.90
2017-11-28T12:10:35.719Z,67.70
2017-11-28T12:13:03.868Z,67.90
2017-11-28T12:15:31.986Z,67.40
2017-11-28T12:18:00.907Z,69.10
2017-11-28T12:20:29.028Z,69.10
2017-11-28T12:22:57.162Z,68.80
2017-11-28T12:25:25.274Z,68.60
2017-11-28T12:27:53.439Z,68.40
2017-11-28T12:30:21.572Z,68.30
2017-11-28T12:32:49.723Z,66.80
2017-11-28T12:35:18.619Z,68.20
2017-11-28T12:37:47.543Z,68.10
2017-11-28T12:40:15.664Z,68.10
2017-11-28T12:42:43.811Z,68.90
2017-11-28T12:45:11.941Z,67.60
2017-11-28T12:47:40.074Z,67.50
2017-11-28T12:50:08.220Z,68.00
2017-11-28T12:52:36.434Z,68.70
2017-11-28T12:55:04.588Z,69.20
2017-11-28T12:57:32.717Z,67.60
2017-11-28T13:00:00.855Z,67.60
2017-11-28T13:02:29.016Z,68.10
2017-11-28T13:04:57.161Z,68.70
2017-11-28T13:07:25.311Z,68.40
2017-11-28T13:09:53.447Z,69.10
2017-11-28T13:12:21.595Z,68.60
2017-11-28T13:14:49.746Z,66.50
2017-11-28T13:17:17.859Z,67.40
2017-11-28T13:19:46.004Z,66.40
2017-11-28T13:22:14.130Z,66.80
2017-11-28T13:24:43.049Z,68.40
2017-11-28T13:27:11.231Z,68.40
2017-11-28T13:29:39.387Z,68.30
2017-11-28T13:32:07.528Z,67.10
2017-11-28T13:34:36.127Z,67.60
2017-11-28T13:37:05.033Z,66.60
2017-11-28T13:39:33.179Z,66.60
2017-11-28T13:42:01.329Z,66.80
2017-11-28T13:44:29.477Z,67.60
2017-11-28T13:46:57.594Z,67.00
2017-11-28T13:49:25.761Z,66.40
2017-11-28T13:51:54.430Z,66.60
2017-11-28T13:54:22.637Z,67.10
2017-11-28T13:56:50.755Z,67.50
2017-11-28T13:59:19.737Z,67.40
2017-11-28T14:01:49.199Z,67.40
2017-11-28T14:04:17.335Z,68.00
2017-11-28T14:06:45.478Z,67.80
2017-11-28T14:09:13.635Z,67.90
2017-11-28T14:11:42.532Z,67.10
2017-11-28T14:14:11.456Z,68.20
2017-11-28T14:16:39.574Z,68.20
2017-11-28T14:19:07.745Z,68.00
2017-11-28T14:21:42.459Z,67.00
2017-11-28T14:24:15.067Z,67.90
2017-11-28T14:26:56.901Z,68.30
2017-11-28T14:29:30.504Z,67.50
2017-11-28T14:32:15.289Z,67.40
2017-11-28T14:34:53.331Z,67.80
2017-11-28T14:37:22.240Z,67.50
2017-11-28T14:39:50.422Z,67.50
2017-11-28T14:42:33.459Z,67.00
2017-11-28T14:45:02.114Z,67.40
2017-11-28T14:47:30.999Z,66.80
2017-11-28T14:49:59.946Z,67.80
2017-11-28T14:52:28.215Z,67.80
2017-11-28T14:55:02.799Z,68.30
2017-11-28T14:57:31.748Z,68.20
2017-11-28T15:00:05.466Z,68.10
2017-11-28T15:02:44.853Z,67.10
2017-11-28T15:05:18.591Z,67.80
2017-11-28T15:07:52.383Z,68.30
2017-11-28T15:10:41.249Z,67.90
2017-11-28T15:13:15.093Z,68.60
2017-11-28T15:16:02.000Z,68.20
2017-11-28T15:18:35.650Z,67.60
2017-11-28T15:21:07.233Z,67.70
2017-11-28T15:23:41.042Z,68.60
2017-11-28T15:26:20.931Z,67.90
2017-11-28T15:28:49.872Z,67.30
2017-11-28T15:31:18.088Z,67.30
2017-11-28T15:33:46.977Z,67.00
2017-11-28T15:36:15.869Z,67.20
2017-11-28T15:38:44.743Z,68.10
2017-11-28T15:41:12.927Z,68.10
2017-11-28T15:43:41.065Z,67.70
2017-11-28T15:46:09.213Z,67.40
2017-11-28T15:48:37.316Z,68.40
2017-11-28T15:51:05.494Z,68.90
2017-11-28T15:53:33.624Z,69.20
2017-11-28T15:56:01.761Z,70.00
2017-11-28T15:58:29.881Z,69.80
2017-11-28T16:00:58.047Z,70.50
2017-11-28T16:03:26.167Z,70.60
2017-11-28T16:05:54.310Z,70.90
2017-11-28T16:08:22.414Z,71.30
2017-11-28T16:10:50.550Z,71.70
2017-11-28T16:13:18.696Z,70.80
2017-11-28T16:15:47.574Z,70.20
2017-11-28T16:18:16.518Z,69.80
2017-11-28T16:20:44.634Z,69.80
2017-11-28T16:23:13.568Z,69.50
2017-11-28T16:25:41.686Z,69.50
2017-11-28T16:28:10.486Z,69.60
2017-11-28T16:30:38.603Z,69.80
2017-11-28T16:33:06.739Z,70.00
2017-11-28T16:35:35.608Z,70.40
2017-11-28T16:38:03.759Z,70.50
2017-11-28T16:40:31.888Z,70.70
2017-11-28T16:43:00.043Z,71.20
2017-11-28T16:45:28.142Z,70.80
2017-11-28T16:47:57.772Z,70.10
2017-11-28T16:50:25.868Z,69.10
2017-11-28T16:52:54.628Z,69.70
2017-11-28T16:55:22.757Z,68.90
2017-11-28T16:57:50.851Z,68.50
2017-11-28T17:00:19.058Z,68.10
2017-11-28T17:02:47.168Z,67.90
2017-11-28T17:05:15.303Z,67.40
2017-11-28T17:07:43.426Z,67.30
2017-11-28T17:10:12.333Z,68.00
2017-11-28T17:12:41.202Z,67.70
2017-11-28T17:15:09.339Z,67.70
2017-11-28T17:17:37.443Z,68.00
2017-11-28T17:20:05.581Z,68.30
2017-11-28T17:22:33.724Z,69.00
2017-11-28T17:25:01.875Z,69.30
2017-11-28T17:27:30.753Z,69.20
2017-11-28T17:29:58.901Z,69.10
2017-11-28T17:32:27.060Z,68.80
2017-11-28T17:34:55.198Z,69.20
2017-11-28T17:37:23.320Z,69.20
2017-11-28T17:39:51.444Z,69.60
2017-11-28T17:42:19.565Z,69.50
2017-11-28T17:44:48.498Z,70.30
2017-11-28T17:47:17.381Z,70.00
2017-11-28T17:49:45.561Z,70.10
2017-11-28T17:52:14.480Z,70.70
2017-11-28T17:54:42.584Z,70.70
2017-11-28T17:57:10.699Z,71.10
2017-11-28T17:59:39.574Z,71.50
2017-11-28T18:02:07.708Z,71.50
2017-11-28T18:04:35.829Z,71.40
2017-11-28T18:07:05.137Z,71.10
2017-11-28T18:09:34.029Z,72.00
2017-11-28T18:12:03.323Z,71.50
2017-11-28T18:14:32.213Z,71.60
2017-11-28T18:17:01.137Z,71.50
2017-11-28T18:19:29.263Z,71.50
2017-11-28T18:21:57.401Z,71.10
2017-11-28T18:24:25.504Z,70.60
2017-11-28T18:26:53.634Z,71.10
2017-11-28T18:29:21.753Z,70.40
2017-11-28T18:31:49.908Z,70.30
2017-11-28T18:34:18.026Z,70.70
2017-11-28T18:36:46.920Z,70.70
2017-11-28T18:39:15.019Z,70.70
2017-11-28T18:41:43.165Z,70.80
2017-11-28T18:44:11.292Z,70.80
2017-11-28T18:46:39.462Z,71.40
2017-11-28T18:49:07.574Z,71.00
2017-11-28T18:51:36.454Z,71.10
2017-11-28T18:54:04.555Z,71.00
2017-11-28T18:56:32.696Z,71.10
2017-11-28T18:59:00.803Z,71.50
2017-11-28T19:01:28.943Z,71.00
2017-11-28T19:03:57.093Z,71.10
2017-11-28T19:06:25.248Z,71.10
2017-11-28T19:08:53.407Z,71.10
2017-11-28T19:11:21.529Z,71.40
2017-11-28T19:13:49.659Z,71.90
2017-11-28T19:16:17.794Z,71.70
2017-11-28T19:18:46.726Z,71.70
2017-11-28T19:21:14.832Z,71.70
2017-11-28T19:23:42.989Z,71.30
2017-11-28T19:26:11.112Z,71.60
2017-11-28T19:28:40.158Z,71.20
2017-11-28T19:31:08.410Z,71.20
2017-11-28T19:33:36.551Z,71.40
2017-11-28T19:36:05.437Z,70.70
2017-11-28T19:38:34.325Z,70.60
2017-11-28T19:41:03.195Z,70.80
2017-11-28T19:43:31.338Z,70.80
2017-11-28T19:45:59.464Z,70.70
2017-11-28T19:48:28.390Z,70.80
2017-11-28T19:50:56.497Z,70.80
2017-11-28T19:53:24.652Z,70.60
2017-11-28T19:55:52.771Z,70.70
2017-11-28T19:58:21.706Z,71.30
2017-11-28T20:00:49.811Z,71.30
2017-11-28T20:03:17.972Z,71.40
2017-11-28T20:05:46.094Z,71.30
2017-11-28T20:08:15.017Z,71.60
2017-11-28T20:10:43.134Z,71.50
2017-11-28T20:13:11.255Z,71.90
2017-11-28T20:15:39.429Z,71.60
2017-11-28T20:18:07.544Z,70.80
2017-11-28T20:20:35.668Z,71.10
2017-11-28T20:23:03.795Z,71.00
2017-11-28T20:25:32.326Z,71.40
2017-11-28T20:31:00.300Z,71.50
2017-11-28T20:33:28.415Z,71.90
2017-11-28T20:35:56.578Z,71.30
2017-11-28T20:38:24.711Z,71.20
2017-11-28T20:40:53.647Z,71.20
2017-11-28T20:43:21.792Z,71.20
2017-11-28T20:45:49.966Z,71.70
2017-11-28T20:48:18.136Z,71.90
2017-11-28T20:50:46.316Z,72.30
2017-11-28T20:53:14.470Z,72.30
2017-11-28T20:55:42.680Z,72.30
2017-11-28T20:58:10.856Z,72.30
2017-11-28T21:00:39.048Z,72.00
2017-11-28T21:03:07.228Z,72.00
2017-11-28T21:05:35.382Z,71.70
2017-11-28T21:08:03.539Z,71.80
2017-11-28T21:10:31.728Z,72.60
2017-11-28T21:12:59.884Z,72.20
2017-11-28T21:15:28.040Z,72.40
2017-11-28T21:17:56.190Z,72.50
2017-11-28T21:20:24.366Z,73.10
2017-11-28T21:22:53.278Z,73.40
2017-11-28T21:25:22.210Z,73.30
2017-11-28T21:27:50.344Z,73.30
2017-11-28T21:30:19.263Z,72.90
2017-11-28T21:32:47.419Z,72.90
2017-11-28T21:35:15.602Z,72.60
2017-11-28T21:37:43.771Z,72.80
2017-11-28T21:40:11.930Z,73.20
2017-11-28T21:42:40.118Z,73.70
2017-11-28T21:45:08.312Z,73.60
2017-11-28T21:47:36.483Z,73.50
2017-11-28T21:50:04.654Z,73.30
2017-11-28T21:52:33.260Z,73.50
2017-11-28T21:55:01.398Z,73.80
2017-11-28T21:57:29.567Z,73.40
2017-11-28T21:59:57.697Z,73.70
2017-11-28T22:02:25.853Z,74.00
2017-11-28T22:04:53.989Z,73.70
2017-11-28T22:07:22.147Z,74.00
2017-11-28T22:09:51.050Z,74.10
2017-11-28T22:12:19.240Z,74.10
2017-11-28T22:14:47.374Z,74.30
2017-11-28T22:17:15.663Z,74.30
2017-11-28T22:19:43.815Z,75.00
2017-11-28T22:22:11.983Z,75.50
2017-11-28T22:24:40.115Z,75.70
2017-11-28T22:27:08.278Z,75.40
2017-11-28T22:29:36.401Z,75.10
2017-11-28T22:32:04.800Z,75.80
2017-11-28T22:34:33.703Z,74.70
2017-11-28T22:37:02.669Z,74.90
2017-11-28T22:39:30.807Z,74.90
2017-11-28T22:41:58.962Z,74.10
2017-11-28T22:44:27.118Z,74.00
2017-11-28T22:46:55.326Z,73.80
2017-11-28T22:49:23.467Z,74.10
2017-11-28T22:51:52.399Z,75.80
2017-11-28T22:54:20.530Z,75.90
2017-11-28T22:56:49.430Z,75.20
2017-11-28T22:59:17.621Z,75.30
2017-11-28T23:01:45.761Z,75.20
2017-11-28T23:04:14.683Z,76.00
2017-11-28T23:06:42.811Z,76.00
2017-11-28T23:09:10.971Z,75.20
2017-11-28T23:11:39.111Z,74.50
2017-11-28T23:14:07.285Z,74.40
2017-11-28T23:16:35.432Z,74.50
2017-11-28T23:19:04.415Z,73.90
2017-11-28T23:21:32.586Z,73.90
2017-11-28T23:24:00.746Z,74.10
2017-11-28T23:26:28.903Z,74.80
2017-11-28T23:28:57.080Z,75.00
2017-11-28T23:31:25.212Z,74.80
2017-11-28T23:33:53.378Z,75.70
2017-11-28T23:36:21.514Z,76.40
2017-11-28T23:38:49.659Z,76.40
2017-11-28T23:41:17.822Z,76.80
2017-11-28T23:43:45.984Z,77.30
2017-11-28T23:46:14.137Z,77.10
2017-11-28T23:48:43.070Z,77.20
2017-11-28T23:51:11.243Z,77.00
2017-11-28T23:53:39.410Z,77.90
2017-11-28T23:56:08.422Z,77.90
2017-11-28T23:58:36.593Z,77.70
